Main page
METAR-TAF:

METAR-TAF

Airports :

Seville, Spain

Seville Airport

latitude: 37-25N, longitude: 005-54W, elevation: 34 m

Current weather observation

The report was made 39 minutes ago, at 16:00 UTC
Wind 5 kt from the West
Temperature 33°C
Humidity 26%
Pressure 1013 hPa
Visibility 10 km or more
no clouds below 1500 m and no cumulonimbus

METAR: LEZL 221600Z 26005KT CAVOK 33/11 Q1013 NOSIG

Time: 18:39 (16:39 UTC)

Forecast

The report was made 2 hours and 39 minutes ago, at 14:00 UTC
Forecast valid from 22 at 15 UTC to 23 at 15 UTC
Wind 5 kt from the West/Southwest
Visibility 10 km or more
no clouds below 1500 m and no cumulonimbus

TAF: LEZL 221400Z 2215/2315 25005KT CAVOK TX36/2315Z TN19/2306Z

Weather observations and forecasts of more than 4000 airports (METAR and TAF reports).

The available stations are represented by yellow and red dots on the map.

Hover mouse over dot to see the name of the station.

Then click to see weather observations and forecasts.

To change the map : click on the green buttons with a black cross to zoom in, on the green button with a dash to zoom out, or on the green arrows for adjacent maps.


METAR-TAF: